< < Back
Terminal Aerodrome Forecast


Current Version              Previous Versions:   1  2  3  4  5  6  7  8  9  

Terminal Aerodrome Forecast

066
FTUS44 KBMX 271129
TAFTCL
TAF
KTCL 271129Z 2712/2812 07003KT P6SM FEW070
     FM271700 09006KT P6SM SCT050
     FM280200 08003KT P6SM SCT250=

Latest METAR

837
SAUS70 KWBC 280600 RRO
MTRTCL
METAR KTCL 280553Z AUTO 00000KT 10SM CLR 23/23 A3004 RMK AO2 SLP171
T02330228 10317 20233 403500222 50003


USA.gov is the U.S. government's official web portal to all federal, state and local government web resources and services.